sensor_id;sensor_type;location;lat;lon;timestamp;pressure;altitude;pressure_sealevel;temperature;humidity
55263;BME280;41125;48.752;9.168;2024-03-08T00:00:01;96704.75;;;2.23;97.65
55263;BME280;41125;48.752;9.168;2024-03-08T00:00:40;96708.47;;;2.22;97.87
55263;BME280;41125;48.752;9.168;2024-03-08T00:01:13;96708.16;;;2.18;97.52
55263;BME280;41125;48.752;9.168;2024-03-08T00:01:45;96700.94;;;2.19;97.60
55263;BME280;41125;48.752;9.168;2024-03-08T00:02:17;96704.44;;;2.19;97.46
55263;BME280;41125;48.752;9.168;2024-03-08T00:02:48;96703.63;;;2.19;98.05
55263;BME280;41125;48.752;9.168;2024-03-08T00:03:21;96708.97;;;2.19;97.85
55263;BME280;41125;48.752;9.168;2024-03-08T00:03:53;96711.66;;;2.19;98.16
55263;BME280;41125;48.752;9.168;2024-03-08T00:04:24;96708.41;;;2.17;97.49
55263;BME280;41125;48.752;9.168;2024-03-08T00:04:56;96711.56;;;2.14;97.59
55263;BME280;41125;48.752;9.168;2024-03-08T00:05:28;96704.09;;;2.16;97.34
55263;BME280;41125;48.752;9.168;2024-03-08T00:06:00;96702.00;;;2.18;97.31
55263;BME280;41125;48.752;9.168;2024-03-08T00:06:31;96710.59;;;2.20;97.52
55263;BME280;41125;48.752;9.168;2024-03-08T00:07:03;96703.63;;;2.19;97.60
55263;BME280;41125;48.752;9.168;2024-03-08T00:07:36;96708.97;;;2.19;97.63
55263;BME280;41125;48.752;9.168;2024-03-08T00:08:07;96706.53;;;2.17;97.84
55263;BME280;41125;48.752;9.168;2024-03-08T00:08:41;96704.91;;;2.16;98.09
55263;BME280;41125;48.752;9.168;2024-03-08T00:09:13;96708.63;;;2.15;98.45
55263;BME280;41125;48.752;9.168;2024-03-08T00:09:44;96705.16;;;2.15;98.41
55263;BME280;41125;48.752;9.168;2024-03-08T00:10:16;96707.81;;;2.15;98.84
55263;BME280;41125;48.752;9.168;2024-03-08T00:10:48;96705.41;;;2.13;98.85
55263;BME280;41125;48.752;9.168;2024-03-08T00:11:19;96698.09;;;2.09;99.04
55263;BME280;41125;48.752;9.168;2024-03-08T00:11:51;96704.59;;;2.13;98.83
55263;BME280;41125;48.752;9.168;2024-03-08T00:12:23;96701.34;;;2.11;99.10
55263;BME280;41125;48.752;9.168;2024-03-08T00:12:55;96703.19;;;2.10;99.10
55263;BME280;41125;48.752;9.168;2024-03-08T00:13:29;96698.09;;;2.09;99.25
55263;BME280;41125;48.752;9.168;2024-03-08T00:14:00;96701.84;;;2.08;99.44
55263;BME280;41125;48.752;9.168;2024-03-08T00:14:31;96699.66;;;2.05;99.35
55263;BME280;41125;48.752;9.168;2024-03-08T00:15:06;96699.09;;;2.03;99.06
55263;BME280;41125;48.752;9.168;2024-03-08T00:15:38;96704.34;;;1.97;99.08
55263;BME280;41125;48.752;9.168;2024-03-08T00:16:09;96700.06;;;1.96;99.07
55263;BME280;41125;48.752;9.168;2024-03-08T00:16:40;96694.69;;;1.96;99.38
55263;BME280;41125;48.752;9.168;2024-03-08T00:17:14;96698.44;;;1.95;99.78
55263;BME280;41125;48.752;9.168;2024-03-08T00:17:47;96698.69;;;1.94;99.99
55263;BME280;41125;48.752;9.168;2024-03-08T00:18:18;96700.78;;;1.92;99.92
55263;BME280;41125;48.752;9.168;2024-03-08T00:18:49;96697.28;;;1.91;99.91
55263;BME280;41125;48.752;9.168;2024-03-08T00:19:20;96697.78;;;1.88;99.86
55263;BME280;41125;48.752;9.168;2024-03-08T00:19:53;96692.41;;;1.88;100.00
55263;BME280;41125;48.752;9.168;2024-03-08T00:20:25;96697.78;;;1.88;100.00
55263;BME280;41125;48.752;9.168;2024-03-08T00:20:56;96691.03;;;1.86;100.00
55263;BME280;41125;48.752;9.168;2024-03-08T00:21:27;96692.91;;;1.85;100.00
55263;BME280;41125;48.752;9.168;2024-03-08T00:21:59;96695.34;;;1.87;100.00
55263;BME280;41125;48.752;9.168;2024-03-08T00:22:31;96695.09;;;1.88;100.00
55263;BME280;41125;48.752;9.168;2024-03-08T00:23:03;96692.41;;;1.88;100.00
55263;BME280;41125;48.752;9.168;2024-03-08T00:23:35;96702.63;;;1.91;100.00
55263;BME280;41125;48.752;9.168;2024-03-08T00:24:06;96699.41;;;1.89;100.00
55263;BME280;41125;48.752;9.168;2024-03-08T00:24:37;96695.09;;;1.88;100.00
55263;BME280;41125;48.752;9.168;2024-03-08T00:25:09;96696.72;;;1.89;100.00
55263;BME280;41125;48.752;9.168;2024-03-08T00:25:40;96699.16;;;1.91;100.00
55263;BME280;41125;48.752;9.168;2024-03-08T00:26:12;96695.66;;;1.90;100.00
55263;BME280;41125;48.752;9.168;2024-03-08T00:26:43;96699.16;;;1.91;100.00
55263;BME280;41125;48.752;9.168;2024-03-08T00:27:15;96697.53;;;1.90;100.00
55263;BME280;41125;48.752;9.168;2024-03-08T00:27:47;96703.13;;;1.88;100.00
55263;BME280;41125;48.752;9.168;2024-03-08T00:28:20;96704.75;;;1.89;100.00
55263;BME280;41125;48.752;9.168;2024-03-08T00:28:51;96703.13;;;1.88;100.00
55263;BME280;41125;48.752;9.168;2024-03-08T00:29:24;96703.59;;;1.85;100.00
55263;BME280;41125;48.752;9.168;2024-03-08T00:29:55;96701.41;;;1.82;100.00
55263;BME280;41125;48.752;9.168;2024-03-08T00:30:27;96702.47;;;1.81;100.00
55263;BME280;41125;48.752;9.168;2024-03-08T00:31:02;96697.12;;;1.81;100.00
55263;BME280;41125;48.752;9.168;2024-03-08T00:31:34;96699.56;;;1.83;100.00
55263;BME280;41125;48.752;9.168;2024-03-08T00:32:06;96698.72;;;1.82;100.00
55263;BME280;41125;48.752;9.168;2024-03-08T00:32:42;96695.50;;;1.80;100.00
55263;BME280;41125;48.752;9.168;2024-03-08T00:33:13;96695.50;;;1.80;100.00
55263;BME280;41125;48.752;9.168;2024-03-08T00:33:44;96682.12;;;1.80;100.00
55263;BME280;41125;48.752;9.168;2024-03-08T00:34:15;96690.12;;;1.80;100.00
55263;BME280;41125;48.752;9.168;2024-03-08T00:34:47;96692.25;;;1.78;100.00
55263;BME280;41125;48.752;9.168;2024-03-08T00:35:19;96688.19;;;1.76;100.00
55263;BME280;41125;48.752;9.168;2024-03-08T00:35:50;96694.84;;;1.73;100.00
55263;BME280;41125;48.752;9.168;2024-03-08T00:36:21;96692.19;;;1.73;100.00
55263;BME280;41125;48.752;9.168;2024-03-08T00:36:53;96691.38;;;1.73;100.00
55263;BME280;41125;48.752;9.168;2024-03-08T00:37:24;96689.50;;;1.73;100.00
55263;BME280;41125;48.752;9.168;2024-03-08T00:37:58;96688.69;;;1.73;100.00
55263;BME280;41125;48.752;9.168;2024-03-08T00:38:29;96684.16;;;1.73;100.00
55263;BME280;41125;48.752;9.168;2024-03-08T00:39:01;96682.25;;;1.74;100.00
55263;BME280;41125;48.752;9.168;2024-03-08T00:39:33;96688.94;;;1.71;100.00
55263;BME280;41125;48.752;9.168;2024-03-08T00:40:08;96678.47;;;1.70;100.00
55263;BME280;41125;48.752;9.168;2024-03-08T00:40:42;96682.22;;;1.68;100.00
55263;BME280;41125;48.752;9.168;2024-03-08T00:41:13;96688.38;;;1.69;100.00
55263;BME280;41125;48.752;9.168;2024-03-08T00:41:45;96685.69;;;1.69;100.00
55263;BME280;41125;48.752;9.168;2024-03-08T00:42:17;96685.69;;;1.69;100.00
55263;BME280;41125;48.752;9.168;2024-03-08T00:42:48;96685.69;;;1.69;100.00
55263;BME280;41125;48.752;9.168;2024-03-08T00:43:20;96684.06;;;1.68;100.00
55263;BME280;41125;48.752;9.168;2024-03-08T00:43:51;96683.00;;;1.69;100.00
55263;BME280;41125;48.752;9.168;2024-03-08T00:44:22;96679.78;;;1.67;100.00
55263;BME280;41125;48.752;9.168;2024-03-08T00:44:55;96678.16;;;1.66;100.00
55263;BME280;41125;48.752;9.168;2024-03-08T00:45:29;96683.50;;;1.66;100.00
55263;BME280;41125;48.752;9.168;2024-03-08T00:46:00;96679.19;;;1.65;100.00
55263;BME280;41125;48.752;9.168;2024-03-08T00:46:32;96679.44;;;1.63;100.00
55263;BME280;41125;48.752;9.168;2024-03-08T00:47:05;96678.63;;;1.63;100.00
55263;BME280;41125;48.752;9.168;2024-03-08T00:47:36;96678.87;;;1.61;100.00
55263;BME280;41125;48.752;9.168;2024-03-08T00:48:08;96677.25;;;1.60;100.00
55263;BME280;41125;48.752;9.168;2024-03-08T00:48:41;96673.19;;;1.58;100.00
55263;BME280;41125;48.752;9.168;2024-03-08T00:49:14;96681.22;;;1.58;100.00
55263;BME280;41125;48.752;9.168;2024-03-08T00:49:46;96681.22;;;1.58;100.00
55263;BME280;41125;48.752;9.168;2024-03-08T00:50:18;96674.81;;;1.59;100.00
55263;BME280;41125;48.752;9.168;2024-03-08T00:50:49;96677.47;;;1.59;100.00
55263;BME280;41125;48.752;9.168;2024-03-08T00:51:21;96679.91;;;1.60;100.00
55263;BME280;41125;48.752;9.168;2024-03-08T00:51:52;96675.38;;;1.61;100.00
55263;BME280;41125;48.752;9.168;2024-03-08T00:52:24;96675.38;;;1.61;100.00
55263;BME280;41125;48.752;9.168;2024-03-08T00:52:57;96684.47;;;1.60;100.00
55263;BME280;41125;48.752;9.168;2024-03-08T00:53:29;96672.94;;;1.59;100.00
55263;BME280;41125;48.752;9.168;2024-03-08T00:54:02;96667.28;;;1.56;100.00
55263;BME280;41125;48.752;9.168;2024-03-08T00:54:36;96675.84;;;1.58;100.00
55263;BME280;41125;48.752;9.168;2024-03-08T00:55:09;96673.19;;;1.58;100.00
55263;BME280;41125;48.752;9.168;2024-03-08T00:55:46;96679.09;;;1.60;100.00
55263;BME280;41125;48.752;9.168;2024-03-08T00:56:18;96670.84;;;1.61;100.00
55263;BME280;41125;48.752;9.168;2024-03-08T00:56:49;96668.97;;;1.62;100.00
55263;BME280;41125;48.752;9.168;2024-03-08T00:57:21;96671.66;;;1.62;100.00
55263;BME280;41125;48.752;9.168;2024-03-08T00:57:53;96670.84;;;1.61;100.00
55263;BME280;41125;48.752;9.168;2024-03-08T00:58:25;96665.25;;;1.63;100.00
55263;BME280;41125;48.752;9.168;2024-03-08T00:58:56;96669.56;;;1.64;100.00
55263;BME280;41125;48.752;9.168;2024-03-08T00:59:27;96663.41;;;1.63;100.00
55263;BME280;41125;48.752;9.168;2024-03-08T00:59:58;96669.56;;;1.64;100.00
55263;BME280;41125;48.752;9.168;2024-03-08T01:00:30;96665.00;;;1.64;100.00
55263;BME280;41125;48.752;9.168;2024-03-08T01:01:01;96670.37;;;1.64;100.00
55263;BME280;41125;48.752;9.168;2024-03-08T01:01:33;96668.75;;;1.63;100.00
55263;BME280;41125;48.752;9.168;2024-03-08T01:02:04;96669.56;;;1.64;100.00
55263;BME280;41125;48.752;9.168;2024-03-08T01:02:38;96670.13;;;1.66;100.00
55263;BME280;41125;48.752;9.168;2024-03-08T01:03:09;96664.88;;;1.71;100.00
55263;BME280;41125;48.752;9.168;2024-03-08T01:03:44;96662.19;;;1.71;99.58
55263;BME280;41125;48.752;9.168;2024-03-08T01:04:16;96668.34;;;1.72;99.42
55263;BME280;41125;48.752;9.168;2024-03-08T01:04:51;96664.63;;;1.73;99.31
55263;BME280;41125;48.752;9.168;2024-03-08T01:05:24;96664.34;;;1.74;99.53
55263;BME280;41125;48.752;9.168;2024-03-08T01:05:55;96665.97;;;1.75;99.25
55263;BME280;41125;48.752;9.168;2024-03-08T01:06:26;96659.81;;;1.75;98.86
55263;BME280;41125;48.752;9.168;2024-03-08T01:06:59;96662.75;;;1.73;98.78
55263;BME280;41125;48.752;9.168;2024-03-08T01:07:30;96661.94;;;1.73;98.87
55263;BME280;41125;48.752;9.168;2024-03-08T01:08:02;96660.88;;;1.74;98.76
55263;BME280;41125;48.752;9.168;2024-03-08T01:08:34;96664.34;;;1.74;98.86
55263;BME280;41125;48.752;9.168;2024-03-08T01:09:05;96662.50;;;1.75;99.04
55263;BME280;41125;48.752;9.168;2024-03-08T01:09:37;96665.72;;;1.77;98.90
55263;BME280;41125;48.752;9.168;2024-03-08T01:10:10;96665.50;;;1.78;99.10
55263;BME280;41125;48.752;9.168;2024-03-08T01:10:41;96656.66;;;1.78;98.88
55263;BME280;41125;48.752;9.168;2024-03-08T01:11:15;96657.47;;;1.78;98.56
55263;BME280;41125;48.752;9.168;2024-03-08T01:11:48;96662.25;;;1.76;98.40
55263;BME280;41125;48.752;9.168;2024-03-08T01:12:23;96657.41;;;1.73;98.12
55263;BME280;41125;48.752;9.168;2024-03-08T01:12:54;96659.50;;;1.71;98.18
55263;BME280;41125;48.752;9.168;2024-03-08T01:13:27;96659.50;;;1.71;98.28
55263;BME280;41125;48.752;9.168;2024-03-08T01:13:58;96652.53;;;1.70;98.20
55263;BME280;41125;48.752;9.168;2024-03-08T01:14:30;96663.25;;;1.70;98.20
55263;BME280;41125;48.752;9.168;2024-03-08T01:15:01;96656.28;;;1.69;98.51
55263;BME280;41125;48.752;9.168;2024-03-08T01:15:33;96656.28;;;1.69;98.80
55263;BME280;41125;48.752;9.168;2024-03-08T01:16:05;96662.91;;;1.66;99.12
55263;BME280;41125;48.752;9.168;2024-03-08T01:16:37;96658.38;;;1.67;98.96
55263;BME280;41125;48.752;9.168;2024-03-08T01:17:10;96656.75;;;1.66;98.59
55263;BME280;41125;48.752;9.168;2024-03-08T01:17:41;96651.41;;;1.66;98.73
55263;BME280;41125;48.752;9.168;2024-03-08T01:18:15;96654.31;;;1.64;98.60
55263;BME280;41125;48.752;9.168;2024-03-08T01:18:46;96652.47;;;1.65;98.67
55263;BME280;41125;48.752;9.168;2024-03-08T01:19:18;96656.28;;;1.69;98.33
55263;BME280;41125;48.752;9.168;2024-03-08T01:19:49;96650.44;;;1.72;98.03
55263;BME280;41125;48.752;9.168;2024-03-08T01:20:20;96653.16;;;1.77;97.53
55263;BME280;41125;48.752;9.168;2024-03-08T01:20:53;96644.09;;;1.78;96.98
55263;BME280;41125;48.752;9.168;2024-03-08T01:21:25;96646.53;;;1.80;96.82
55263;BME280;41125;48.752;9.168;2024-03-08T01:21:56;96644.09;;;1.78;96.44
55263;BME280;41125;48.752;9.168;2024-03-08T01:22:28;96650.50;;;1.77;96.55
55263;BME280;41125;48.752;9.168;2024-03-08T01:23:00;96647.81;;;1.77;96.72
55263;BME280;41125;48.752;9.168;2024-03-08T01:23:32;96647.25;;;1.75;96.59
55263;BME280;41125;48.752;9.168;2024-03-08T01:24:04;96648.31;;;1.74;96.70
55263;BME280;41125;48.752;9.168;2024-03-08T01:24:36;96645.09;;;1.72;96.64
55263;BME280;41125;48.752;9.168;2024-03-08T01:25:08;96650.09;;;1.68;96.92
55263;BME280;41125;48.752;9.168;2024-03-08T01:25:42;96651.97;;;1.68;96.77
55263;BME280;41125;48.752;9.168;2024-03-08T01:26:15;96650.59;;;1.65;97.07
55263;BME280;41125;48.752;9.168;2024-03-08T01:26:48;96646.06;;;1.66;97.13
55263;BME280;41125;48.752;9.168;2024-03-08T01:27:20;96646.06;;;1.66;97.30
55263;BME280;41125;48.752;9.168;2024-03-08T01:27:52;96640.69;;;1.66;97.35
55263;BME280;41125;48.752;9.168;2024-03-08T01:28:25;96646.06;;;1.66;97.40
55263;BME280;41125;48.752;9.168;2024-03-08T01:28:57;96653.25;;;1.65;97.31
55263;BME280;41125;48.752;9.168;2024-03-08T01:29:30;96646.06;;;1.66;97.62
55263;BME280;41125;48.752;9.168;2024-03-08T01:30:01;96645.25;;;1.65;97.31
55263;BME280;41125;48.752;9.168;2024-03-08T01:30:32;96639.09;;;1.65;97.49
55263;BME280;41125;48.752;9.168;2024-03-08T01:31:05;96639.09;;;1.65;97.49
55263;BME280;41125;48.752;9.168;2024-03-08T01:31:37;96642.31;;;1.67;97.62
55263;BME280;41125;48.752;9.168;2024-03-08T01:32:08;96640.47;;;1.67;97.98
55263;BME280;41125;48.752;9.168;2024-03-08T01:32:39;96638.59;;;1.68;97.79
55263;BME280;41125;48.752;9.168;2024-03-08T01:33:10;96634.31;;;1.67;97.42
55263;BME280;41125;48.752;9.168;2024-03-08T01:33:42;96636.41;;;1.65;97.68
55263;BME280;41125;48.752;9.168;2024-03-08T01:34:13;96639.09;;;1.65;97.32
55263;BME280;41125;48.752;9.168;2024-03-08T01:34:44;96636.66;;;1.63;97.81
55263;BME280;41125;48.752;9.168;2024-03-08T01:35:19;96642.47;;;1.60;97.62
55263;BME280;41125;48.752;9.168;2024-03-08T01:35:54;96636.31;;;1.60;97.49
55263;BME280;41125;48.752;9.168;2024-03-08T01:36:26;96635.50;;;1.59;97.66
55263;BME280;41125;48.752;9.168;2024-03-08T01:36:57;96632.25;;;1.57;98.22
55263;BME280;41125;48.752;9.168;2024-03-08T01:37:29;96631.44;;;1.57;97.99
55263;BME280;41125;48.752;9.168;2024-03-08T01:38:01;96630.63;;;1.56;98.14
55263;BME280;41125;48.752;9.168;2024-03-08T01:38:32;96632.97;;;1.53;98.17
55263;BME280;41125;48.752;9.168;2024-03-08T01:39:03;96634.28;;;1.50;98.70
55263;BME280;41125;48.752;9.168;2024-03-08T01:39:38;96626.72;;;1.47;98.79
55263;BME280;41125;48.752;9.168;2024-03-08T01:40:10;96626.97;;;1.46;99.07
55263;BME280;41125;48.752;9.168;2024-03-08T01:40:42;96629.66;;;1.46;99.05
55263;BME280;41125;48.752;9.168;2024-03-08T01:41:13;96629.66;;;1.46;99.69
55263;BME280;41125;48.752;9.168;2024-03-08T01:41:45;96628.03;;;1.45;98.94
55263;BME280;41125;48.752;9.168;2024-03-08T01:42:16;96624.22;;;1.41;99.33
55263;BME280;41125;48.752;9.168;2024-03-08T01:42:51;96627.69;;;1.41;99.34
55263;BME280;41125;48.752;9.168;2024-03-08T01:43:28;96622.59;;;1.40;99.30
55263;BME280;41125;48.752;9.168;2024-03-08T01:44:00;96619.69;;;1.41;99.23
55263;BME280;41125;48.752;9.168;2024-03-08T01:44:31;96622.91;;;1.43;98.85
55263;BME280;41125;48.752;9.168;2024-03-08T01:45:07;96619.19;;;1.44;98.74
55263;BME280;41125;48.752;9.168;2024-03-08T01:45:38;96612.78;;;1.45;98.69
55263;BME280;41125;48.752;9.168;2024-03-08T01:46:11;96616.84;;;1.48;98.38
55263;BME280;41125;48.752;9.168;2024-03-08T01:46:44;96615.56;;;1.50;98.22
55263;BME280;41125;48.752;9.168;2024-03-08T01:47:16;96614.50;;;1.51;97.92
55263;BME280;41125;48.752;9.168;2024-03-08T01:47:48;96614.50;;;1.51;98.02
55263;BME280;41125;48.752;9.168;2024-03-08T01:48:20;96613.31;;;1.59;97.39
55263;BME280;41125;48.752;9.168;2024-03-08T01:48:55;96609.56;;;1.60;96.96
55263;BME280;41125;48.752;9.168;2024-03-08T01:49:27;96614.94;;;1.60;97.07
55263;BME280;41125;48.752;9.168;2024-03-08T01:49:59;96612.50;;;1.58;97.24
55263;BME280;41125;48.752;9.168;2024-03-08T01:50:32;96614.34;;;1.58;97.02
55263;BME280;41125;48.752;9.168;2024-03-08T01:51:04;96611.91;;;1.56;97.33
55263;BME280;41125;48.752;9.168;2024-03-08T01:51:36;96606.81;;;1.55;97.48
55263;BME280;41125;48.752;9.168;2024-03-08T01:52:08;96607.63;;;1.55;97.66
55263;BME280;41125;48.752;9.168;2024-03-08T01:52:39;96597.97;;;1.54;97.74
55263;BME280;41125;48.752;9.168;2024-03-08T01:53:11;96605.19;;;1.54;98.32
55263;BME280;41125;48.752;9.168;2024-03-08T01:53:45;96601.72;;;1.53;98.25
55263;BME280;41125;48.752;9.168;2024-03-08T01:54:18;96606.25;;;1.53;98.58
55263;BME280;41125;48.752;9.168;2024-03-08T01:54:51;96600.09;;;1.52;98.76
55263;BME280;41125;48.752;9.168;2024-03-08T01:55:23;96603.56;;;1.53;98.80
55263;BME280;41125;48.752;9.168;2024-03-08T01:55:56;96600.31;;;1.51;99.07
55263;BME280;41125;48.752;9.168;2024-03-08T01:56:29;96596.28;;;1.48;98.65
55263;BME280;41125;48.752;9.168;2024-03-08T01:57:03;96600.25;;;1.46;98.78
55263;BME280;41125;48.752;9.168;2024-03-08T01:57:35;96595.13;;;1.44;98.36
55263;BME280;41125;48.752;9.168;2024-03-08T01:58:10;96592.69;;;1.43;98.76
55263;BME280;41125;48.752;9.168;2024-03-08T01:58:42;96592.69;;;1.43;98.63
55263;BME280;41125;48.752;9.168;2024-03-08T01:59:15;96592.69;;;1.43;98.53
55263;BME280;41125;48.752;9.168;2024-03-08T01:59:47;96594.81;;;1.41;98.45
55263;BME280;41125;48.752;9.168;2024-03-08T02:00:20;96591.31;;;1.40;98.23
55263;BME280;41125;48.752;9.168;2024-03-08T02:00:56;96599.09;;;1.42;98.49
55263;BME280;41125;48.752;9.168;2024-03-08T02:01:29;96594.31;;;1.44;98.38
55263;BME280;41125;48.752;9.168;2024-03-08T02:02:01;96590.59;;;1.45;98.03
55263;BME280;41125;48.752;9.168;2024-03-08T02:02:34;96587.34;;;1.43;97.90
55263;BME280;41125;48.752;9.168;2024-03-08T02:03:05;96595.13;;;1.44;97.92
55263;BME280;41125;48.752;9.168;2024-03-08T02:03:37;96592.22;;;1.46;97.67
55263;BME280;41125;48.752;9.168;2024-03-08T02:04:09;96584.28;;;1.51;97.05
55263;BME280;41125;48.752;9.168;2024-03-08T02:04:42;96596.13;;;1.55;96.56
55263;BME280;41125;48.752;9.168;2024-03-08T02:05:14;96590.78;;;1.55;95.91
55263;BME280;41125;48.752;9.168;2024-03-08T02:05:46;96583.00;;;1.53;95.70
55263;BME280;41125;48.752;9.168;2024-03-08T02:06:17;96587.53;;;1.53;95.77
55263;BME280;41125;48.752;9.168;2024-03-08T02:06:49;96585.34;;;1.50;95.71
55263;BME280;41125;48.752;9.168;2024-03-08T02:07:21;96583.38;;;1.45;95.89
55263;BME280;41125;48.752;9.168;2024-03-08T02:07:53;96588.97;;;1.44;95.67
55263;BME280;41125;48.752;9.168;2024-03-08T02:08:25;96586.53;;;1.42;96.11
55263;BME280;41125;48.752;9.168;2024-03-08T02:08:57;96582.81;;;1.43;95.98
55263;BME280;41125;48.752;9.168;2024-03-08T02:09:28;96587.34;;;1.43;96.11
55263;BME280;41125;48.752;9.168;2024-03-08T02:10:03;96582.00;;;1.43;96.22
55263;BME280;41125;48.752;9.168;2024-03-08T02:10:35;96579.34;;;1.43;96.23
55263;BME280;41125;48.752;9.168;2024-03-08T02:11:06;96584.44;;;1.44;96.07
55263;BME280;41125;48.752;9.168;2024-03-08T02:11:38;96575.59;;;1.44;96.40
55263;BME280;41125;48.752;9.168;2024-03-08T02:12:11;96576.19;;;1.46;96.02
55263;BME280;41125;48.752;9.168;2024-03-08T02:12:42;96578.28;;;1.44;95.38
55263;BME280;41125;48.752;9.168;2024-03-08T02:13:14;96579.81;;;1.40;95.04
55263;BME280;41125;48.752;9.168;2024-03-08T02:13:46;96576.31;;;1.39;95.55
55263;BME280;41125;48.752;9.168;2024-03-08T02:14:17;96571.78;;;1.40;95.55
55263;BME280;41125;48.752;9.168;2024-03-08T02:14:49;96571.78;;;1.40;96.06
55263;BME280;41125;48.752;9.168;2024-03-08T02:15:21;96571.78;;;1.40;96.20
55263;BME280;41125;48.752;9.168;2024-03-08T02:15:56;96573.41;;;1.41;96.09
55263;BME280;41125;48.752;9.168;2024-03-08T02:16:30;96574.47;;;1.40;96.30
55263;BME280;41125;48.752;9.168;2024-03-08T02:17:02;96571.78;;;1.40;96.22
55263;BME280;41125;48.752;9.168;2024-03-08T02:17:33;96570.50;;;1.42;96.31
55263;BME280;41125;48.752;9.168;2024-03-08T02:18:05;96569.69;;;1.42;96.21
55263;BME280;41125;48.752;9.168;2024-03-08T02:18:37;96568.63;;;1.43;96.39
55263;BME280;41125;48.752;9.168;2024-03-08T02:19:10;96566.78;;;1.43;96.32
55263;BME280;41125;48.752;9.168;2024-03-08T02:19:41;96566.78;;;1.43;96.42
55263;BME280;41125;48.752;9.168;2024-03-08T02:20:13;96565.97;;;1.43;96.46
55263;BME280;41125;48.752;9.168;2024-03-08T02:20:56;96563.53;;;1.41;96.50
55263;BME280;41125;48.752;9.168;2024-03-08T02:21:28;96561.66;;;1.42;96.38
55263;BME280;41125;48.752;9.168;2024-03-08T02:22:00;96565.41;;;1.41;96.36
55263;BME280;41125;48.752;9.168;2024-03-08T02:22:36;96559.00;;;1.42;96.33
55263;BME280;41125;48.752;9.168;2024-03-08T02:23:08;96557.38;;;1.41;96.24
55263;BME280;41125;48.752;9.168;2024-03-08T02:23:40;96571.78;;;1.40;96.31
55263;BME280;41125;48.752;9.168;2024-03-08T02:24:12;96564.03;;;1.38;96.33
55263;BME280;41125;48.752;9.168;2024-03-08T02:24:51;96560.00;;;1.36;96.70
55263;BME280;41125;48.752;9.168;2024-03-08T02:25:23;96562.09;;;1.33;97.20
55263;BME280;41125;48.752;9.168;2024-03-08T02:25:55;96556.75;;;1.33;97.15
55263;BME280;41125;48.752;9.168;2024-03-08T02:26:27;96562.09;;;1.33;97.30
55263;BME280;41125;48.752;9.168;2024-03-08T02:26:59;96558.84;;;1.31;97.39
55263;BME280;41125;48.752;9.168;2024-03-08T02:27:30;96554.56;;;1.30;97.56
55263;BME280;41125;48.752;9.168;2024-03-08T02:28:02;96560.97;;;1.29;97.92
55263;BME280;41125;48.752;9.168;2024-03-08T02:28:35;96557.47;;;1.29;97.97
55263;BME280;41125;48.752;9.168;2024-03-08T02:29:09;96562.00;;;1.28;98.24
55263;BME280;41125;48.752;9.168;2024-03-08T02:29:43;96552.38;;;1.27;98.45
55263;BME280;41125;48.752;9.168;2024-03-08T02:30:19;96552.38;;;1.27;98.46
55263;BME280;41125;48.752;9.168;2024-03-08T02:30:50;96557.47;;;1.29;98.25
55263;BME280;41125;48.752;9.168;2024-03-08T02:31:22;96560.97;;;1.29;98.22
55263;BME280;41125;48.752;9.168;2024-03-08T02:31:53;96555.59;;;1.29;97.92
55263;BME280;41125;48.752;9.168;2024-03-08T02:32:24;96551.88;;;1.30;97.85
55263;BME280;41125;48.752;9.168;2024-03-08T02:32:56;96553.50;;;1.31;97.58
55263;BME280;41125;48.752;9.168;2024-03-08T02:33:28;96553.50;;;1.31;97.47
55263;BME280;41125;48.752;9.168;2024-03-08T02:34:00;96558.84;;;1.31;97.51
55263;BME280;41125;48.752;9.168;2024-03-08T02:34:39;96554.31;;;1.32;97.42
55263;BME280;41125;48.752;9.168;2024-03-08T02:35:11;96551.41;;;1.33;97.14
55263;BME280;41125;48.752;9.168;2024-03-08T02:35:45;96549.78;;;1.32;96.87
55263;BME280;41125;48.752;9.168;2024-03-08T02:36:20;96557.81;;;1.32;96.46
55263;BME280;41125;48.752;9.168;2024-03-08T02:36:52;96546.88;;;1.34;96.58
55263;BME280;41125;48.752;9.168;2024-03-08T02:37:24;96554.66;;;1.36;96.13
55263;BME280;41125;48.752;9.168;2024-03-08T02:37:55;96551.41;;;1.33;96.21
55263;BME280;41125;48.752;9.168;2024-03-08T02:38:27;96552.44;;;1.32;96.00
55263;BME280;41125;48.752;9.168;2024-03-08T02:38:59;96551.88;;;1.30;96.21
55263;BME280;41125;48.752;9.168;2024-03-08T02:39:34;96552.94;;;1.29;96.03
55263;BME280;41125;48.752;9.168;2024-03-08T02:40:06;96548.66;;;1.28;96.29
55263;BME280;41125;48.752;9.168;2024-03-08T02:40:43;96554.31;;;1.32;96.21
55263;BME280;41125;48.752;9.168;2024-03-08T02:41:14;96554.31;;;1.32;96.14
55263;BME280;41125;48.752;9.168;2024-03-08T02:41:45;96548.97;;;1.32;95.78
55263;BME280;41125;48.752;9.168;2024-03-08T02:42:17;96545.81;;;1.35;95.62
55263;BME280;41125;48.752;9.168;2024-03-08T02:42:51;96541.84;;;1.38;95.01
55263;BME280;41125;48.752;9.168;2024-03-08T02:43:25;96543.47;;;1.39;95.36
55263;BME280;41125;48.752;9.168;2024-03-08T02:43:56;96548.31;;;1.42;94.90
55263;BME280;41125;48.752;9.168;2024-03-08T02:44:28;96544.00;;;1.41;94.53
55263;BME280;41125;48.752;9.168;2024-03-08T02:44:59;96535.19;;;1.40;94.51
55263;BME280;41125;48.752;9.168;2024-03-08T02:45:32;96548.31;;;1.42;94.45
55263;BME280;41125;48.752;9.168;2024-03-08T02:46:03;96539.47;;;1.41;94.49
55263;BME280;41125;48.752;9.168;2024-03-08T02:46:39;96542.38;;;1.40;94.65
55263;BME280;41125;48.752;9.168;2024-03-08T02:47:10;96540.81;;;1.39;94.51
55263;BME280;41125;48.752;9.168;2024-03-08T02:47:42;96544.53;;;1.38;95.05
55263;BME280;41125;48.752;9.168;2024-03-08T02:48:14;96545.56;;;1.37;95.08
55263;BME280;41125;48.752;9.168;2024-03-08T02:48:47;96537.56;;;1.37;95.23
55263;BME280;41125;48.752;9.168;2024-03-08T02:49:18;96546.63;;;1.36;94.95
55263;BME280;41125;48.752;9.168;2024-03-08T02:49:49;96543.94;;;1.36;95.17
55263;BME280;41125;48.752;9.168;2024-03-08T02:50:24;96534.06;;;1.36;95.39
55263;BME280;41125;48.752;9.168;2024-03-08T02:50:56;96539.41;;;1.36;95.46
55263;BME280;41125;48.752;9.168;2024-03-08T02:51:29;96536.97;;;1.34;95.57
55263;BME280;41125;48.752;9.168;2024-03-08T02:52:02;96533.75;;;1.32;95.66
55263;BME280;41125;48.752;9.168;2024-03-08T02:52:34;96539.00;;;1.27;95.13